Time;durP1;ratioP1;P1;durP2;ratioP2;P2;SDS_P1;SDS_P2;PMS_P1;PMS_P2;Temp;Humidity;BMP_temperature;BMP_pressure;BME280_temperature;BME280_humidity;BME280_pressure;Samples;Min_cycle;Max_cycle;Signal;HPM_P1;HPM_P2
2021/06/22 00:00:42;;;;;;;1999.90;999.90;;;16.00;99.90;;;;;;6126074;23;20155;-46
2021/06/22 00:03:09;;;;;;;1999.90;999.90;;;16.00;99.90;;;;;;6126016;23;20143;-45
2021/06/22 00:05:36;;;;;;;1999.90;999.90;;;16.00;99.90;;;;;;6126041;23;20209;-44
2021/06/22 00:08:03;;;;;;;1999.90;999.90;;;16.00;99.90;;;;;;6125903;23;20551;-44
2021/06/22 00:10:32;;;;;;;1999.90;999.90;;;15.90;99.90;;;;;;6125824;23;20163;-44
2021/06/22 00:12:59;;;;;;;1999.90;999.90;;;15.80;99.90;;;;;;6126018;23;20143;-44
2021/06/22 00:15:29;;;;;;;1999.90;999.90;;;15.70;99.90;;;;;;6125945;23;20174;-45
2021/06/22 00:17:56;;;;;;;1999.90;999.90;;;15.70;99.90;;;;;;6125942;23;20147;-45
2021/06/22 00:20:24;;;;;;;1999.90;999.90;;;15.60;99.90;;;;;;6126134;23;20594;-44
2021/06/22 00:22:53;;;;;;;1999.90;999.90;;;15.60;99.90;;;;;;6125899;23;20599;-44
2021/06/22 00:25:21;;;;;;;1999.90;999.90;;;15.50;99.90;;;;;;6125825;23;20624;-44
2021/06/22 00:27:49;;;;;;;1999.90;999.90;;;15.50;99.90;;;;;;6125900;23;20151;-44
2021/06/22 00:30:16;;;;;;;1999.90;999.90;;;15.40;99.90;;;;;;6125706;23;20186;-43
2021/06/22 00:32:43;;;;;;;1999.90;999.90;;;15.40;99.90;;;;;;6125762;23;20186;-42
2021/06/22 00:35:11;;;;;;;1999.90;999.90;;;15.40;99.90;;;;;;6125900;23;20186;-42
2021/06/22 00:37:39;;;;;;;1999.90;999.90;;;15.40;99.90;;;;;;6125781;23;20493;-43
2021/06/22 00:40:07;;;;;;;1999.90;999.90;;;15.30;99.90;;;;;;6126101;23;20199;-44
2021/06/22 00:42:33;;;;;;;1999.90;999.90;;;15.40;99.90;;;;;;6126221;23;20165;-43
2021/06/22 00:45:01;;;;;;;1999.90;999.90;;;15.30;99.90;;;;;;6125813;23;20148;-43
2021/06/22 00:47:29;;;;;;;1999.90;999.90;;;15.30;99.90;;;;;;6125790;23;20159;-43
2021/06/22 00:49:57;;;;;;;1999.90;999.90;;;15.20;99.90;;;;;;6127100;23;20618;-43
2021/06/22 00:52:26;;;;;;;1999.90;999.90;;;15.30;99.90;;;;;;6127776;23;20515;-42
2021/06/22 00:54:55;;;;;;;1999.90;999.90;;;15.20;99.90;;;;;;6098445;23;20169;-44
2021/06/22 00:57:23;;;;;;;1999.90;999.90;;;15.20;99.90;;;;;;6098440;23;20200;-43
2021/06/22 00:59:50;;;;;;;1999.90;999.90;;;15.20;99.90;;;;;;6098670;23;20248;-43
2021/06/22 01:02:17;;;;;;;1999.90;999.90;;;15.10;99.90;;;;;;6098342;23;20239;-43
2021/06/22 01:04:44;;;;;;;1999.90;999.90;;;15.10;99.90;;;;;;6098394;23;20227;-43
2021/06/22 01:07:15;;;;;;;1999.90;999.90;;;15.10;99.90;;;;;;6098371;23;20184;-43
2021/06/22 01:09:43;;;;;;;1999.90;999.90;;;15.00;99.90;;;;;;6098129;23;20213;-43
2021/06/22 01:12:10;;;;;;;1999.90;999.90;;;15.00;99.90;;;;;;6098310;23;20564;-43
2021/06/22 01:14:42;;;;;;;1999.90;999.90;;;15.00;99.90;;;;;;6098250;23;20148;-44
2021/06/22 01:17:09;;;;;;;1999.90;999.90;;;15.10;99.90;;;;;;6098243;23;20148;-44
2021/06/22 01:19:37;;;;;;;1999.90;999.90;;;15.10;99.90;;;;;;6098079;23;20468;-44
2021/06/22 01:22:06;;;;;;;1999.90;999.90;;;15.10;99.90;;;;;;6098096;23;20163;-44
2021/06/22 01:24:33;;;;;;;1999.90;999.90;;;15.10;99.90;;;;;;6072521;23;20242;-44
2021/06/22 01:27:01;;;;;;;1999.90;999.90;;;15.10;99.90;;;;;;6098093;23;20156;-44
2021/06/22 01:29:29;;;;;;;1999.90;999.90;;;15.10;99.90;;;;;;6098222;23;20188;-44
2021/06/22 01:31:57;;;;;;;1999.90;999.90;;;15.10;99.90;;;;;;6098050;23;20223;-44
2021/06/22 01:34:29;;;;;;;1999.90;999.90;;;15.10;99.90;;;;;;6097960;23;20163;-46
2021/06/22 01:36:58;;;;;;;1999.90;999.90;;;15.10;99.90;;;;;;6098053;23;20140;-44
2021/06/22 01:39:25;;;;;;;1999.90;999.90;;;15.10;99.90;;;;;;6098060;23;20148;-45
2021/06/22 01:41:52;;;;;;;1999.90;999.90;;;15.10;99.90;;;;;;6097906;23;20226;-44
2021/06/22 01:44:19;;;;;;;1999.90;999.90;;;15.10;99.90;;;;;;6097874;23;20202;-45
2021/06/22 01:46:46;;;;;;;1999.90;999.90;;;15.10;99.90;;;;;;6097959;23;20668;-44
2021/06/22 01:49:12;;;;;;;1999.90;999.90;;;15.10;99.90;;;;;;6097698;23;20239;-44
2021/06/22 01:51:39;;;;;;;1999.90;999.90;;;15.10;99.90;;;;;;6097953;23;20209;-45
2021/06/22 01:54:06;;;;;;;1999.90;999.90;;;15.10;99.90;;;;;;6118287;23;20204;-45
2021/06/22 01:56:35;;;;;;;1999.90;999.90;;;15.10;99.90;;;;;;6127295;23;20143;-45
2021/06/22 01:59:03;;;;;;;1999.90;999.90;;;15.10;99.90;;;;;;6127053;23;20151;-45
2021/06/22 02:01:30;;;;;;;1999.90;999.90;;;15.20;99.90;;;;;;6126902;23;20222;-44
2021/06/22 02:03:57;;;;;;;1999.90;999.90;;;15.20;99.90;;;;;;6127074;23;20154;-45
2021/06/22 02:06:24;;;;;;;1999.90;999.90;;;15.20;99.90;;;;;;6126991;23;20155;-44
2021/06/22 02:08:50;;;;;;;1999.90;999.90;;;15.20;99.90;;;;;;6126931;23;20674;-45
2021/06/22 02:11:17;;;;;;;1999.90;999.90;;;15.20;99.90;;;;;;6126914;23;20151;-44
2021/06/22 02:13:45;;;;;;;1999.90;999.90;;;15.20;99.90;;;;;;6126988;23;20155;-44
2021/06/22 02:16:12;;;;;;;1999.90;999.90;;;15.20;99.90;;;;;;6126935;23;20153;-44
2021/06/22 02:18:39;;;;;;;1999.90;999.90;;;15.10;99.90;;;;;;6126899;23;20151;-44
2021/06/22 02:21:06;;;;;;;1999.90;999.90;;;15.10;99.90;;;;;;6126982;23;20210;-44
2021/06/22 02:23:34;;;;;;;1999.90;999.90;;;15.10;99.90;;;;;;6126958;23;20170;-44
2021/06/22 02:26:01;;;;;;;1999.90;999.90;;;15.20;99.90;;;;;;6126829;23;20159;-44
2021/06/22 02:28:29;;;;;;;1999.90;999.90;;;15.10;99.90;;;;;;6126674;23;20174;-44
2021/06/22 02:30:57;;;;;;;1999.90;999.90;;;15.00;99.90;;;;;;6126803;23;20153;-44
2021/06/22 02:33:24;;;;;;;1999.90;999.90;;;15.00;99.90;;;;;;6126793;23;20148;-44
2021/06/22 02:35:51;;;;;;;1999.90;999.90;;;15.00;99.90;;;;;;6126582;23;20163;-44
2021/06/22 02:38:18;;;;;;;1999.90;999.90;;;15.00;99.90;;;;;;6126746;23;20143;-44
2021/06/22 02:40:46;;;;;;;1999.90;999.90;;;15.00;99.90;;;;;;6126468;23;20534;-44
2021/06/22 02:43:14;;;;;;;1999.90;999.90;;;15.00;99.90;;;;;;6126708;23;20147;-44
2021/06/22 02:45:41;;;;;;;1999.90;999.90;;;15.00;99.90;;;;;;6126822;23;20212;-44
2021/06/22 02:48:10;;;;;;;1999.90;999.90;;;15.00;99.90;;;;;;6126541;23;20203;-46
2021/06/22 02:50:39;;;;;;;1999.90;999.90;;;15.00;99.90;;;;;;6126654;23;20295;-44
2021/06/22 02:53:08;;;;;;;1999.90;999.90;;;15.00;99.90;;;;;;6126599;23;20661;-44
2021/06/22 02:55:35;;;;;;;1999.90;999.90;;;15.10;99.90;;;;;;6126681;23;20170;-44
2021/06/22 02:58:02;;;;;;;1999.90;999.90;;;15.10;99.90;;;;;;6126465;23;20147;-44
2021/06/22 03:00:31;;;;;;;1999.90;999.90;;;15.10;99.90;;;;;;6126522;23;20144;-44
2021/06/22 03:02:58;;;;;;;1999.90;999.90;;;15.10;99.90;;;;;;6126273;23;20153;-43
2021/06/22 03:05:26;;;;;;;1999.90;999.90;;;15.10;99.90;;;;;;6126004;23;20514;-42
2021/06/22 03:07:53;;;;;;;1999.90;999.90;;;15.10;99.90;;;;;;6126002;23;20537;-42
2021/06/22 03:10:21;;;;;;;1999.90;999.90;;;15.10;99.90;;;;;;6125740;23;20183;-42
2021/06/22 03:12:48;;;;;;;1999.90;999.90;;;15.10;99.90;;;;;;6125346;23;20147;-44
2021/06/22 03:15:18;;;;;;;1999.90;999.90;;;15.10;99.90;;;;;;6125760;23;20153;-43
2021/06/22 03:17:46;;;;;;;1999.90;999.90;;;15.10;99.90;;;;;;6125770;23;20155;-43
2021/06/22 03:20:13;;;;;;;1999.90;999.90;;;15.10;99.90;;;;;;6125748;23;20148;-43
2021/06/22 03:22:40;;;;;;;1999.90;999.90;;;15.10;99.90;;;;;;6125719;23;20151;-43
2021/06/22 03:25:09;;;;;;;1999.90;999.90;;;15.10;99.90;;;;;;6125921;23;20165;-43
2021/06/22 03:27:36;;;;;;;1999.90;999.90;;;15.10;99.90;;;;;;6125939;23;20160;-44
2021/06/22 03:30:07;;;;;;;1999.90;999.90;;;15.10;99.90;;;;;;6125279;23;20194;-44
2021/06/22 03:32:34;;;;;;;1999.90;999.90;;;15.10;99.90;;;;;;6125401;23;20151;-49
2021/06/22 03:35:03;;;;;;;1999.90;999.90;;;15.10;99.90;;;;;;6125335;23;20155;-44
2021/06/22 03:37:30;;;;;;;1999.90;999.90;;;15.10;99.90;;;;;;6125543;23;20144;-44
2021/06/22 03:39:57;;;;;;;1999.90;999.90;;;15.10;99.90;;;;;;6125499;23;20147;-44
2021/06/22 03:42:24;;;;;;;1999.90;999.90;;;15.10;99.90;;;;;;6125464;23;20201;-45
2021/06/22 03:44:51;;;;;;;1999.90;999.90;;;15.10;99.90;;;;;;6125511;23;20150;-44
2021/06/22 03:47:19;;;;;;;1999.90;999.90;;;15.10;99.90;;;;;;6125534;23;20229;-44
2021/06/22 03:49:46;;;;;;;1999.90;999.90;;;15.10;99.90;;;;;;6125290;23;20652;-44
2021/06/22 03:52:13;;;;;;;1999.90;999.90;;;15.20;99.90;;;;;;6125565;23;20229;-44
2021/06/22 03:54:41;;;;;;;1999.90;999.90;;;15.20;99.90;;;;;;6125394;23;20238;-44
2021/06/22 03:57:08;;;;;;;1999.90;999.90;;;15.20;99.90;;;;;;6125397;23;20147;-44
2021/06/22 03:59:34;;;;;;;1999.90;999.90;;;15.20;99.90;;;;;;6125344;23;20227;-43
2021/06/22 04:02:01;;;;;;;1999.90;999.90;;;15.20;99.90;;;;;;6125127;23;20167;-45
2021/06/22 04:04:28;;;;;;;1999.90;999.90;;;15.10;99.90;;;;;;6125229;23;20166;-44
2021/06/22 04:06:55;;;;;;;1999.90;999.90;;;15.10;99.90;;;;;;6125250;23;20222;-44
2021/06/22 04:09:25;;;;;;;1999.90;999.90;;;15.10;99.90;;;;;;6125159;23;20253;-44
2021/06/22 04:11:55;;;;;;;1999.90;999.90;;;15.10;99.90;;;;;;6125079;23;20476;-44
2021/06/22 04:14:22;;;;;;;1999.90;999.90;;;15.10;99.90;;;;;;6125040;23;20147;-44
2021/06/22 04:16:48;;;;;;;1999.90;999.90;;;15.10;99.90;;;;;;6125229;23;20159;-47
2021/06/22 04:19:15;;;;;;;1999.90;999.90;;;15.10;99.90;;;;;;6125307;23;20198;-47
2021/06/22 04:21:42;;;;;;;1999.90;999.90;;;15.10;99.90;;;;;;6125294;23;20185;-44
2021/06/22 04:24:09;;;;;;;1999.90;999.90;;;15.10;99.90;;;;;;6125938;23;20144;-45
2021/06/22 04:26:36;;;;;;;1999.90;999.90;;;15.10;99.90;;;;;;6127300;23;20206;-45
2021/06/22 04:29:04;;;;;;;1999.90;999.90;;;15.10;99.90;;;;;;6127152;23;20183;-45
2021/06/22 04:31:31;;;;;;;1999.90;999.90;;;15.10;99.90;;;;;;6127173;23;20210;-51
2021/06/22 04:33:58;;;;;;;1999.90;999.90;;;15.10;99.90;;;;;;6127169;23;20147;-45
2021/06/22 04:36:25;;;;;;;1999.90;999.90;;;15.10;99.90;;;;;;6127233;23;20154;-46
2021/06/22 04:38:52;;;;;;;1999.90;999.90;;;15.10;99.90;;;;;;6126940;23;20151;-45
2021/06/22 04:41:22;;;;;;;1999.90;999.90;;;15.10;99.90;;;;;;6127071;23;20279;-45
2021/06/22 04:43:49;;;;;;;1999.90;999.90;;;15.10;99.90;;;;;;6126737;23;20151;-45
2021/06/22 04:46:17;;;;;;;1999.90;999.90;;;15.20;99.90;;;;;;6127072;23;20230;-50
2021/06/22 04:48:43;;;;;;;1999.90;999.90;;;15.20;99.90;;;;;;6127737;23;20258;-46
2021/06/22 04:51:10;;;;;;;1999.90;999.90;;;15.20;99.90;;;;;;6127524;23;20583;-49
2021/06/22 04:53:37;;;;;;;1999.90;999.90;;;15.20;99.90;;;;;;6127362;23;20265;-46
2021/06/22 04:56:04;;;;;;;1999.90;999.90;;;15.20;99.90;;;;;;6127308;23;20174;-45
2021/06/22 04:58:31;;;;;;;1999.90;999.90;;;15.20;99.90;;;;;;6127145;23;20187;-45
2021/06/22 05:01:02;;;;;;;1999.90;999.90;;;15.30;99.90;;;;;;6127110;23;20171;-46
2021/06/22 05:03:31;;;;;;;1999.90;999.90;;;15.30;99.90;;;;;;6127135;23;20143;-46
2021/06/22 05:05:59;;;;;;;1999.90;999.90;;;15.30;99.90;;;;;;6127173;23;20148;-46
2021/06/22 05:08:26;;;;;;;1999.90;999.90;;;15.30;99.90;;;;;;6127167;23;20169;-44
2021/06/22 05:10:53;;;;;;;1999.90;999.90;;;15.30;99.90;;;;;;6127010;23;20167;-45
2021/06/22 05:13:21;;;;;;;1999.90;999.90;;;15.40;99.90;;;;;;6127235;23;20202;-47
2021/06/22 05:15:48;;;;;;;1999.90;999.90;;;15.40;99.90;;;;;;6127231;23;20472;-45
2021/06/22 05:18:15;;;;;;;1999.90;999.90;;;15.40;99.90;;;;;;6127168;23;20609;-45
2021/06/22 05:20:42;;;;;;;1999.90;999.90;;;15.40;99.90;;;;;;6127057;23;20611;-45
2021/06/22 05:23:09;;;;;;;1999.90;999.90;;;15.40;99.90;;;;;;6126837;23;20155;-45
2021/06/22 05:25:36;;;;;;;1999.90;999.90;;;15.40;99.90;;;;;;6126758;23;20158;-45
2021/06/22 05:28:03;;;;;;;1999.90;999.90;;;15.40;99.90;;;;;;6126995;23;20201;-45
2021/06/22 05:30:30;;;;;;;1999.90;999.90;;;15.40;99.90;;;;;;6126844;23;20179;-45
2021/06/22 05:32:57;;;;;;;1999.90;999.90;;;15.50;99.90;;;;;;6126659;23;20518;-45
2021/06/22 05:35:24;;;;;;;1999.90;999.90;;;15.40;99.90;;;;;;6126307;23;20239;-44
2021/06/22 05:37:51;;;;;;;1999.90;999.90;;;15.40;99.90;;;;;;6126857;23;20191;-44
2021/06/22 05:40:18;;;;;;;1999.90;999.90;;;15.40;99.90;;;;;;6126950;23;20226;-46
2021/06/22 05:42:45;;;;;;;1999.90;999.90;;;15.30;99.90;;;;;;6126698;23;20276;-45
2021/06/22 05:45:12;;;;;;;1999.90;999.90;;;15.30;99.90;;;;;;6126773;23;20518;-44
2021/06/22 05:47:39;;;;;;;1999.90;999.90;;;15.30;99.90;;;;;;6126441;23;20201;-44
2021/06/22 05:50:09;;;;;;;1999.90;999.90;;;15.20;99.90;;;;;;6100399;23;20187;-45
2021/06/22 05:52:36;;;;;;;1999.90;999.90;;;15.20;99.90;;;;;;6126581;23;20151;-45
2021/06/22 05:55:04;;;;;;;1999.90;999.90;;;15.20;99.90;;;;;;6126463;23;20148;-45
2021/06/22 05:57:31;;;;;;;1999.90;999.90;;;15.20;99.90;;;;;;6126448;23;20452;-47
2021/06/22 05:59:57;;;;;;;1999.90;999.90;;;15.20;99.90;;;;;;6126297;23;20238;-45
2021/06/22 06:02:24;;;;;;;1999.90;999.90;;;15.10;99.90;;;;;;6126380;23;20233;-46
2021/06/22 06:04:51;;;;;;;1999.90;999.90;;;15.20;99.90;;;;;;6126596;23;20148;-45
2021/06/22 06:07:18;;;;;;;1999.90;999.90;;;15.20;99.90;;;;;;6126356;23;20159;-62
2021/06/22 06:09:46;;;;;;;1999.90;999.90;;;15.20;99.90;;;;;;6124035;23;20194;-47
2021/06/22 06:12:12;;;;;;;1999.90;999.90;;;15.30;99.90;;;;;;6126191;23;20183;-47
2021/06/22 06:14:39;;;;;;;1999.90;999.90;;;15.30;99.90;;;;;;6125820;23;20542;-53
2021/06/22 06:17:06;;;;;;;1999.90;999.90;;;15.40;99.90;;;;;;6126059;23;20202;-46
2021/06/22 06:19:33;;;;;;;1999.90;999.90;;;15.40;99.90;;;;;;6125983;23;20151;-55
2021/06/22 06:21:59;;;;;;;1999.90;999.90;;;15.50;99.90;;;;;;6125966;23;20170;-53
2021/06/22 06:24:26;;;;;;;1999.90;999.90;;;15.50;99.90;;;;;;6126019;23;20170;-52
2021/06/22 06:27:01;;;;;;;1999.90;999.90;;;15.50;99.90;;;;;;6126214;23;20181;-58
2021/06/22 06:29:44;;;;;;;1999.90;999.90;;;15.50;99.90;;;;;;6125907;23;20588;-57
2021/06/22 06:32:11;;;;;;;1999.90;999.90;;;15.60;99.90;;;;;;6126183;23;20140;-54
2021/06/22 06:34:38;;;;;;;1999.90;999.90;;;15.50;99.90;;;;;;6125826;23;20158;-48
2021/06/22 06:37:05;;;;;;;1999.90;999.90;;;15.60;99.90;;;;;;6100024;23;20587;-50
2021/06/22 06:39:31;;;;;;;1999.90;999.90;;;15.50;99.90;;;;;;6125808;23;20234;-46
2021/06/22 06:41:58;;;;;;;1999.90;999.90;;;15.50;99.90;;;;;;6125709;23;20155;-59
2021/06/22 06:44:25;;;;;;;1999.90;999.90;;;15.60;99.90;;;;;;6125786;23;20170;-56
2021/06/22 06:46:52;;;;;;;1999.90;999.90;;;15.70;99.90;;;;;;6125937;23;20154;-41
2021/06/22 06:49:19;;;;;;;1999.90;999.90;;;15.60;99.90;;;;;;6125777;23;20186;-49
2021/06/22 06:51:45;;;;;;;1999.90;999.90;;;15.60;99.90;;;;;;6099473;23;20217;-47
2021/06/22 06:54:12;;;;;;;1999.90;999.90;;;15.60;99.90;;;;;;6099660;23;20218;-41
2021/06/22 06:56:39;;;;;;;1999.90;999.90;;;15.60;99.90;;;;;;6125761;23;20178;-55
2021/06/22 06:59:06;;;;;;;1999.90;999.90;;;15.80;99.90;;;;;;6125402;23;20211;-46
2021/06/22 07:01:33;;;;;;;1999.90;999.90;;;16.00;99.90;;;;;;6124597;23;20176;-54
2021/06/22 07:04:00;;;;;;;1999.90;999.90;;;16.00;99.90;;;;;;6097591;23;20152;-44
2021/06/22 07:06:27;;;;;;;1999.90;999.90;;;16.10;99.90;;;;;;6099281;23;20162;-54
2021/06/22 07:08:54;;;;;;;1999.90;999.90;;;16.20;99.90;;;;;;6125364;23;20267;-41
2021/06/22 07:11:21;;;;;;;1999.90;999.90;;;16.20;99.90;;;;;;6125674;23;20158;-49
2021/06/22 07:13:51;;;;;;;1999.90;999.90;;;16.30;99.90;;;;;;6125589;23;20195;-49
2021/06/22 07:16:18;;;;;;;1999.90;999.90;;;16.40;99.90;;;;;;6124833;23;20147;-43
2021/06/22 07:18:45;;;;;;;1999.90;999.90;;;16.50;99.90;;;;;;6125872;23;20159;-47
2021/06/22 07:21:12;;;;;;;1999.90;999.90;;;16.60;99.90;;;;;;6125697;23;20162;-51
2021/06/22 07:23:39;;;;;;;1999.90;999.90;;;16.80;99.90;;;;;;6125009;23;20178;-52
2021/06/22 07:26:06;;;;;;;1999.90;999.90;;;16.80;99.90;;;;;;6125210;23;20590;-55
2021/06/22 07:28:33;;;;;;;1999.90;999.90;;;16.80;99.90;;;;;;6125281;23;20147;-59
2021/06/22 07:30:59;;;;;;;1999.90;999.90;;;16.80;99.90;;;;;;6125649;23;20175;-54
2021/06/22 07:33:26;;;;;;;1999.90;999.90;;;16.70;99.90;;;;;;6125332;23;20148;-57
2021/06/22 07:35:53;;;;;;;1999.90;999.90;;;16.70;99.90;;;;;;6125456;23;20148;-53
2021/06/22 07:38:20;;;;;;;1999.90;999.90;;;16.70;99.90;;;;;;6125385;23;20147;-58
2021/06/22 07:40:47;;;;;;;1999.90;999.90;;;16.70;99.90;;;;;;6125678;23;20170;-58
2021/06/22 07:43:14;;;;;;;1999.90;999.90;;;16.80;99.90;;;;;;6124863;23;20579;-51
2021/06/22 07:45:42;;;;;;;1999.90;999.90;;;16.90;99.90;;;;;;6125198;23;20159;-55
2021/06/22 07:48:10;;;;;;;1999.90;999.90;;;16.90;99.90;;;;;;6125244;23;20158;-59
2021/06/22 07:50:37;;;;;;;1999.90;999.90;;;16.90;99.90;;;;;;6099313;23;20198;-60
2021/06/22 07:53:05;;;;;;;1999.90;999.90;;;16.90;99.90;;;;;;6125260;23;20234;-59
2021/06/22 07:55:32;;;;;;;1999.90;999.90;;;16.90;99.90;;;;;;6125669;23;20155;-60
2021/06/22 07:57:59;;;;;;;1999.90;999.90;;;17.00;99.90;;;;;;6124365;23;20222;-58
2021/06/22 08:03:01;;;;;;;1999.90;999.90;;;16.90;99.90;;;;;;6135375;23;20139;-57
2021/06/22 08:05:27;;;;;;;1999.90;999.90;;;16.90;99.90;;;;;;6125318;23;20154;-47
2021/06/22 08:07:54;;;;;;;1999.90;999.90;;;16.70;99.90;;;;;;6125049;23;20233;-51
2021/06/22 08:10:21;;;;;;;1999.90;999.90;;;16.70;99.90;;;;;;6098974;23;20179;-52
2021/06/22 08:12:48;;;;;;;1999.90;999.90;;;16.80;99.90;;;;;;6125093;23;20153;-50
2021/06/22 08:15:15;;;;;;;1999.90;999.90;;;16.80;99.90;;;;;;6124798;23;20154;-46
2021/06/22 08:17:42;;;;;;;1999.90;999.90;;;16.80;99.90;;;;;;6125232;23;20209;-56
2021/06/22 08:20:10;;;;;;;1999.90;999.90;;;16.80;99.90;;;;;;6125017;23;20151;-42
2021/06/22 08:22:38;;;;;;;1999.90;999.90;;;16.70;99.90;;;;;;6125319;23;20202;-61
2021/06/22 08:25:08;;;;;;;1999.90;999.90;;;16.70;99.90;;;;;;6125565;23;20148;-52
2021/06/22 08:27:35;;;;;;;1999.90;999.90;;;16.70;99.90;;;;;;6125525;23;20506;-43
2021/06/22 08:30:04;;;;;;;1999.90;999.90;;;16.60;99.90;;;;;;6125921;23;20183;-43
2021/06/22 08:32:31;;;;;;;1999.90;999.90;;;16.60;99.90;;;;;;6125536;23;20489;-56
2021/06/22 08:34:58;;;;;;;1999.90;999.90;;;16.60;99.90;;;;;;6125933;23;20523;-45
2021/06/22 08:37:24;;;;;;;1999.90;999.90;;;16.60;99.90;;;;;;6099610;23;20159;-55
2021/06/22 08:39:51;;;;;;;1999.90;999.90;;;16.70;99.90;;;;;;6125208;23;20156;-55
2021/06/22 08:42:19;;;;;;;1999.90;999.90;;;16.80;99.90;;;;;;6125083;23;20195;-58
2021/06/22 08:44:48;;;;;;;1999.90;999.90;;;16.90;99.90;;;;;;6125095;23;20151;-48
2021/06/22 08:47:20;;;;;;;1999.90;999.90;;;17.00;99.90;;;;;;6124933;23;20147;-53
2021/06/22 08:49:48;;;;;;;1999.90;999.90;;;17.00;99.90;;;;;;6125105;23;20175;-49
2021/06/22 08:52:15;;;;;;;1999.90;999.90;;;17.00;99.90;;;;;;6125057;23;20148;-53
2021/06/22 08:54:42;;;;;;;1999.90;999.90;;;17.00;99.90;;;;;;6126143;23;20278;-57
2021/06/22 08:57:09;;;;;;;1999.90;999.90;;;17.00;99.90;;;;;;6099314;23;20467;-58
2021/06/22 08:59:35;;;;;;;1999.90;999.90;;;17.00;99.90;;;;;;6125353;23;20147;-56
2021/06/22 09:02:05;;;;;;;1999.90;999.90;;;16.90;99.90;;;;;;6125114;23;20154;-60
2021/06/22 09:04:31;;;;;;;1999.90;999.90;;;16.90;99.90;;;;;;6124373;23;20158;-46
2021/06/22 09:06:58;;;;;;;1999.90;999.90;;;16.90;99.90;;;;;;6121796;23;20158;-52
2021/06/22 09:09:38;;;;;;;1999.90;999.90;;;16.90;99.90;;;;;;6124238;23;20222;-47
2021/06/22 09:12:06;;;;;;;1999.90;999.90;;;16.90;99.90;;;;;;6127073;23;20147;-58
2021/06/22 09:14:42;;;;;;;1999.90;999.90;;;16.90;99.90;;;;;;6126132;23;20194;-56
2021/06/22 09:17:09;;;;;;;1999.90;999.90;;;16.90;99.90;;;;;;6126742;23;20143;-48
2021/06/22 09:19:37;;;;;;;1999.90;999.90;;;16.80;99.90;;;;;;6127113;23;20209;-49
2021/06/22 09:22:18;;;;;;;1999.90;999.90;;;16.70;99.90;;;;;;6126887;23;20154;-52
2021/06/22 09:25:10;;;;;;;1999.90;999.90;;;16.80;99.90;;;;;;6126998;23;20152;-56
2021/06/22 09:27:52;;;;;;;1999.90;999.90;;;16.80;99.90;;;;;;6126402;23;20563;-58
2021/06/22 09:30:37;;;;;;;1999.90;999.90;;;16.80;99.90;;;;;;6126811;23;20183;-55
2021/06/22 09:33:20;;;;;;;1999.90;999.90;;;16.80;99.90;;;;;;6126756;23;20234;-54
2021/06/22 09:35:48;;;;;;;1999.90;999.90;;;16.80;99.90;;;;;;6126785;23;20150;-59
2021/06/22 09:38:15;;;;;;;1999.90;999.90;;;17.10;99.90;;;;;;6126874;23;20650;-58
2021/06/22 09:40:42;;;;;;;1999.90;999.90;;;17.70;99.90;;;;;;6126727;23;20208;-57
2021/06/22 09:43:10;;;;;;;1999.90;999.90;;;17.60;99.90;;;;;;6127036;23;20148;-54
2021/06/22 09:45:38;;;;;;;1999.90;999.90;;;17.70;99.90;;;;;;6127024;23;20151;-56
2021/06/22 09:48:05;;;;;;;1999.90;999.90;;;17.70;99.90;;;;;;6126609;23;20480;-53
2021/06/22 09:50:47;;;;;;;1999.90;999.90;;;17.70;99.90;;;;;;6126430;23;20198;-53
2021/06/22 09:53:31;;;;;;;1999.90;999.90;;;17.60;99.90;;;;;;6126416;23;20583;-59
2021/06/22 09:56:05;;;;;;;1999.90;999.90;;;17.40;99.90;;;;;;6098706;23;20151;-58
2021/06/22 09:58:43;;;;;;;1999.90;999.90;;;17.40;99.90;;;;;;6126589;23;20139;-55
2021/06/22 10:01:31;;;;;;;1999.90;999.90;;;17.50;99.90;;;;;;6126533;23;20143;-52
2021/06/22 10:04:19;;;;;;;1999.90;999.90;;;17.30;99.90;;;;;;6126513;23;20630;-55
2021/06/22 10:06:57;;;;;;;1999.90;999.90;;;17.40;99.90;;;;;;6126245;23;20187;-60
2021/06/22 10:09:31;;;;;;;1999.90;999.90;;;17.40;99.90;;;;;;6126128;23;20221;-50
2021/06/22 10:12:08;;;;;;;1999.90;999.90;;;17.40;99.90;;;;;;6126619;23;20147;-57
2021/06/22 10:14:46;;;;;;;1999.90;999.90;;;17.50;99.90;;;;;;6126160;23;20567;-60
2021/06/22 10:17:18;;;;;;;1999.90;999.90;;;17.60;99.90;;;;;;6126241;23;20131;-51
2021/06/22 10:19:47;;;;;;;1999.90;999.90;;;17.70;99.90;;;;;;6126595;23;20135;-53
2021/06/22 10:22:16;;;;;;;1999.90;999.90;;;17.80;99.90;;;;;;6126039;23;20330;-52
2021/06/22 10:24:46;;;;;;;1999.90;999.90;;;17.70;99.90;;;;;;6100338;23;20233;-56
2021/06/22 10:27:16;;;;;;;1999.90;999.90;;;17.50;99.90;;;;;;6126953;23;20155;-60
2021/06/22 10:29:45;;;;;;;1999.90;999.90;;;17.40;99.90;;;;;;6126567;23;20175;-57
2021/06/22 10:32:13;;;;;;;1999.90;999.90;;;17.50;99.90;;;;;;6126442;23;20475;-52
2021/06/22 10:34:48;;;;;;;1999.90;999.90;;;17.50;99.90;;;;;;6126623;23;20234;-53
2021/06/22 10:37:32;;;;;;;1999.90;999.90;;;17.60;99.90;;;;;;6126262;23;20147;-47
2021/06/22 10:40:06;;;;;;;1999.90;999.90;;;17.80;99.90;;;;;;6126115;23;20147;-52
2021/06/22 10:43:03;;;;;;;1999.90;999.90;;;17.90;99.90;;;;;;6124013;23;20483;-53
2021/06/22 10:45:30;;;;;;;1999.90;999.90;;;18.00;99.90;;;;;;6125355;23;20143;-47
2021/06/22 10:48:02;;;;;;;1999.90;999.90;;;18.20;99.90;;;;;;6124153;23;20274;-50
2021/06/22 10:50:32;;;;;;;1999.90;999.90;;;18.40;99.90;;;;;;6126070;23;20228;-61
2021/06/22 10:53:10;;;;;;;1999.90;999.90;;;18.60;99.90;;;;;;6125492;23;20187;-60
2021/06/22 10:55:41;;;;;;;1999.90;999.90;;;18.80;99.90;;;;;;6125472;23;20166;-61
2021/06/22 10:58:11;;;;;;;1999.90;999.90;;;18.60;99.90;;;;;;6125751;23;20139;-53
2021/06/22 11:00:48;;;;;;;1999.90;999.90;;;18.40;99.90;;;;;;6099676;23;20155;-55
2021/06/22 11:03:32;;;;;;;1999.90;999.90;;;18.40;99.90;;;;;;6125926;23;20602;-54
2021/06/22 11:06:13;;;;;;;1999.90;999.90;;;18.40;99.90;;;;;;6125997;23;20173;-51
2021/06/22 11:08:42;;;;;;;1999.90;999.90;;;18.40;99.90;;;;;;6127922;23;20207;-52
2021/06/22 11:11:09;;;;;;;1999.90;999.90;;;18.50;99.90;;;;;;6127618;23;20167;-58
2021/06/22 11:13:46;;;;;;;1999.90;999.90;;;18.60;99.90;;;;;;6127053;23;20226;-44
2021/06/22 11:16:19;;;;;;;1999.90;999.90;;;18.70;99.90;;;;;;6129247;23;20145;-49
2021/06/22 11:18:55;;;;;;;1999.90;999.90;;;18.60;99.90;;;;;;6129627;23;20147;-59
2021/06/22 11:21:27;;;;;;;1999.90;999.90;;;18.60;99.90;;;;;;6126171;23;20165;-54
2021/06/22 11:24:15;;;;;;;1999.90;999.90;;;18.60;99.90;;;;;;6125524;23;20147;-51
2021/06/22 11:26:48;;;;;;;1999.90;999.90;;;18.40;99.90;;;;;;6125319;23;20144;-47
2021/06/22 11:29:17;;;;;;;1999.90;999.90;;;18.30;99.90;;;;;;6125643;23;20234;-50
2021/06/22 11:31:53;;;;;;;1999.90;999.90;;;18.30;99.90;;;;;;6125664;23;20230;-44
2021/06/22 11:34:25;;;;;;;1999.90;999.90;;;18.30;99.90;;;;;;6125555;23;20170;-48
2021/06/22 11:36:54;;;;;;;1999.90;999.90;;;18.30;99.90;;;;;;6127023;23;20218;-45
2021/06/22 11:39:25;;;;;;;1999.90;999.90;;;18.30;99.90;;;;;;6127065;23;20231;-51
2021/06/22 11:42:13;;;;;;;1999.90;999.90;;;18.10;99.90;;;;;;6125931;23;20222;-49
2021/06/22 11:44:45;;;;;;;1999.90;999.90;;;17.80;99.90;;;;;;6125561;23;20226;-47
2021/06/22 11:47:31;;;;;;;1999.90;999.90;;;17.40;99.90;;;;;;6125699;23;20257;-46
2021/06/22 11:50:12;;;;;;;1999.90;999.90;;;16.90;99.90;;;;;;6125250;23;20184;-46
2021/06/22 11:52:50;;;;;;;1999.90;999.90;;;16.90;99.90;;;;;;6125132;23;20568;-46
2021/06/22 11:55:21;;;;;;;1999.90;999.90;;;16.60;99.90;;;;;;6125205;23;20494;-48
2021/06/22 11:57:49;;;;;;;1999.90;999.90;;;16.60;99.90;;;;;;6125465;23;20443;-54
2021/06/22 12:00:32;;;;;;;1999.90;999.90;;;16.40;99.90;;;;;;6125202;23;20234;-43
2021/06/22 12:03:00;;;;;;;1999.90;999.90;;;16.20;99.90;;;;;;6125161;23;20151;-46
2021/06/22 12:05:29;;;;;;;1999.90;999.90;;;15.70;99.90;;;;;;6125358;23;20609;-57
2021/06/22 12:08:04;;;;;;;1999.90;999.90;;;15.30;99.90;;;;;;6125091;23;20143;-44
2021/06/22 12:10:40;;;;;;;1999.90;999.90;;;14.80;99.90;;;;;;6125352;23;20502;-45